createdAt,value
2019-05-06T00:00:34.496Z,9.00
2019-05-06T00:03:05.144Z,8.90
2019-05-06T00:05:35.681Z,8.90
2019-05-06T00:08:06.075Z,8.90
2019-05-06T00:10:36.847Z,8.90
2019-05-06T00:13:07.258Z,8.90
2019-05-06T00:15:39.200Z,8.90
2019-05-06T00:18:11.069Z,8.90
2019-05-06T00:20:43.719Z,9.00
2019-05-06T00:23:18.150Z,9.00
2019-05-06T00:25:53.552Z,9.00
2019-05-06T00:28:25.803Z,8.90
2019-05-06T00:31:12.204Z,8.90
2019-05-06T00:33:34.101Z,8.80
2019-05-06T00:36:04.861Z,8.90
2019-05-06T00:38:36.401Z,8.90
2019-05-06T00:41:25.156Z,8.80
2019-05-06T00:43:57.203Z,8.80
2019-05-06T00:46:27.569Z,8.70
2019-05-06T00:48:57.971Z,8.70
2019-05-06T00:51:28.445Z,8.70
2019-05-06T00:54:04.002Z,8.70
2019-05-06T00:56:34.637Z,8.60
2019-05-06T00:59:05.056Z,8.60
2019-05-06T01:01:36.981Z,8.60
2019-05-06T01:04:07.449Z,8.60
2019-05-06T01:06:37.834Z,8.60
2019-05-06T01:09:10.811Z,8.60
2019-05-06T01:11:44.904Z,8.60
2019-05-06T01:14:17.141Z,8.50
2019-05-06T01:16:47.520Z,8.50
2019-05-06T01:19:17.928Z,8.50
2019-05-06T01:21:48.317Z,8.50
2019-05-06T01:24:18.909Z,8.50
2019-05-06T01:26:50.739Z,8.50
2019-05-06T01:29:21.246Z,8.40
2019-05-06T01:31:54.230Z,8.40
2019-05-06T01:34:25.377Z,8.40
2019-05-06T01:36:55.754Z,8.40
2019-05-06T01:39:27.814Z,8.40
2019-05-06T01:42:08.790Z,8.40
2019-05-06T01:44:39.292Z,8.40
2019-05-06T01:47:11.962Z,8.30
2019-05-06T01:49:45.223Z,8.30
2019-05-06T01:52:15.591Z,8.30
2019-05-06T01:54:46.003Z,8.30
2019-05-06T01:57:16.362Z,8.30
2019-05-06T01:59:46.903Z,8.30
2019-05-06T02:02:17.501Z,8.30
2019-05-06T02:04:47.966Z,8.30
2019-05-06T02:07:18.355Z,8.30
2019-05-06T02:09:48.752Z,8.30
2019-05-06T02:12:19.140Z,8.30
2019-05-06T02:14:49.708Z,8.30
2019-05-06T02:17:20.123Z,8.40
2019-05-06T02:19:50.527Z,8.40
2019-05-06T02:22:24.113Z,8.40
2019-05-06T02:24:56.261Z,8.40
2019-05-06T02:27:27.011Z,8.40
2019-05-06T02:29:59.101Z,8.40
2019-05-06T02:32:35.985Z,8.40
2019-05-06T02:35:08.300Z,8.40
2019-05-06T02:37:40.291Z,8.40
2019-05-06T02:40:24.878Z,8.40
2019-05-06T02:42:55.044Z,8.40
2019-05-06T02:45:26.047Z,8.40
2019-05-06T02:47:58.055Z,8.40
2019-05-06T02:50:45.327Z,8.40
2019-05-06T02:53:17.363Z,8.40
2019-05-06T02:55:47.845Z,8.40
2019-05-06T02:58:19.780Z,8.40
2019-05-06T03:00:49.919Z,8.30
2019-05-06T03:03:23.278Z,8.40
2019-05-06T03:05:53.481Z,8.40
2019-05-06T03:08:25.552Z,8.40
2019-05-06T03:10:56.020Z,8.30
2019-05-06T03:13:27.006Z,8.30
2019-05-06T03:15:58.891Z,8.30
2019-05-06T03:18:29.256Z,8.40
2019-05-06T03:21:03.674Z,8.30
2019-05-06T03:23:44.203Z,8.30
2019-05-06T03:26:14.691Z,8.40
2019-05-06T03:28:45.108Z,8.30
2019-05-06T03:31:17.818Z,8.40
2019-05-06T03:34:05.910Z,8.40
2019-05-06T03:36:27.172Z,8.40
2019-05-06T03:38:53.606Z,8.40
2019-05-06T03:41:26.744Z,8.40
2019-05-06T03:43:56.670Z,8.40
2019-05-06T03:46:45.043Z,8.40
2019-05-06T03:49:15.423Z,8.30
2019-05-06T03:51:45.830Z,8.30
2019-05-06T03:54:17.881Z,8.30
2019-05-06T03:56:49.189Z,8.30
2019-05-06T03:59:23.341Z,8.40
2019-05-06T04:01:54.767Z,8.40
2019-05-06T04:04:25.369Z,8.40
2019-05-06T04:06:56.692Z,8.40
2019-05-06T04:09:28.552Z,8.50
2019-05-06T04:11:59.353Z,8.40
2019-05-06T04:14:34.045Z,8.30
2019-05-06T04:17:13.086Z,8.40
2019-05-06T04:19:45.461Z,8.40
2019-05-06T04:22:23.369Z,8.40
2019-05-06T04:24:54.141Z,8.50
2019-05-06T04:27:46.329Z,8.50
2019-05-06T04:30:17.747Z,8.40
2019-05-06T04:32:48.256Z,8.50
2019-05-06T04:35:22.755Z,8.60
2019-05-06T04:37:54.634Z,8.50
2019-05-06T04:40:25.254Z,8.50
2019-05-06T04:42:56.041Z,8.50
2019-05-06T04:45:26.502Z,8.60
2019-05-06T04:47:56.931Z,8.60
2019-05-06T04:50:27.345Z,8.70
2019-05-06T04:52:59.316Z,8.70
2019-05-06T04:55:30.029Z,8.80
2019-05-06T04:58:04.055Z,8.80
2019-05-06T05:00:36.817Z,8.90
2019-05-06T05:03:07.210Z,8.90
2019-05-06T05:05:37.741Z,9.00
2019-05-06T05:08:09.075Z,9.00
2019-05-06T05:10:43.162Z,9.10
2019-05-06T05:13:18.979Z,9.20
2019-05-06T05:16:02.136Z,9.20
2019-05-06T05:18:36.321Z,9.30
2019-05-06T05:21:06.993Z,9.40
2019-05-06T05:23:39.084Z,9.50
2019-05-06T05:26:11.983Z,9.70
2019-05-06T05:28:43.389Z,9.90
2019-05-06T05:31:13.827Z,10.10
2019-05-06T05:33:45.685Z,10.30
2019-05-06T05:36:16.258Z,10.50
2019-05-06T05:38:46.730Z,10.70
2019-05-06T05:41:17.236Z,10.90
2019-05-06T05:43:55.049Z,11.00
2019-05-06T05:46:25.610Z,11.20
2019-05-06T05:49:02.748Z,11.40
2019-05-06T05:51:32.650Z,11.70
2019-05-06T05:54:04.513Z,12.00
2019-05-06T05:56:35.060Z,12.10
2019-05-06T05:59:05.839Z,12.20
2019-05-06T06:01:36.296Z,12.40
2019-05-06T06:04:08.208Z,12.60
2019-05-06T06:06:38.725Z,12.60
2019-05-06T06:09:09.124Z,12.70
2019-05-06T06:11:42.113Z,12.90
2019-05-06T06:14:33.225Z,13.10
2019-05-06T06:17:05.358Z,13.10
2019-05-06T06:19:40.449Z,13.10
2019-05-06T06:22:17.032Z,13.20
2019-05-06T06:24:47.447Z,13.80
2019-05-06T06:27:18.429Z,14.20
2019-05-06T06:29:48.936Z,14.80
2019-05-06T06:32:22.854Z,16.20
2019-05-06T06:35:07.477Z,16.40
2019-05-06T06:37:38.839Z,16.80
2019-05-06T06:40:12.991Z,16.80
2019-05-06T06:42:42.871Z,17.00
2019-05-06T06:45:15.073Z,16.80
2019-05-06T06:47:45.557Z,17.00
2019-05-06T06:50:16.106Z,17.30
2019-05-06T06:52:46.607Z,17.70
2019-05-06T06:55:19.214Z,18.70
2019-05-06T06:57:52.777Z,20.40
2019-05-06T07:03:12.260Z,23.30
2019-05-06T07:05:47.491Z,23.00
2019-05-06T07:08:32.150Z,21.80
2019-05-06T07:10:52.414Z,20.70
2019-05-06T07:13:23.273Z,19.60
2019-05-06T07:15:55.277Z,18.40
2019-05-06T07:18:25.677Z,17.40
2019-05-06T07:20:59.136Z,16.50
2019-05-06T07:23:32.691Z,15.80
2019-05-06T07:26:03.328Z,15.20
2019-05-06T07:28:34.893Z,14.90
2019-05-06T07:31:18.721Z,14.50
2019-05-06T07:33:37.415Z,14.10
2019-05-06T07:36:07.781Z,13.70
2019-05-06T07:38:40.006Z,13.50
2019-05-06T07:41:14.839Z,13.30
2019-05-06T07:43:53.021Z,13.10
2019-05-06T07:46:27.952Z,13.00
2019-05-06T07:48:58.376Z,13.00
2019-05-06T07:51:28.746Z,13.10
2019-05-06T07:53:59.156Z,13.00
2019-05-06T07:56:29.546Z,12.90
2019-05-06T07:59:09.244Z,13.00
2019-05-06T08:01:43.483Z,12.80
2019-05-06T08:04:12.728Z,12.70
2019-05-06T08:06:43.238Z,12.70
2019-05-06T08:09:13.709Z,12.80
2019-05-06T08:11:44.088Z,13.00
2019-05-06T08:14:14.518Z,13.00
2019-05-06T08:16:53.265Z,13.00
2019-05-06T08:19:23.875Z,13.10
2019-05-06T08:21:55.868Z,13.20
2019-05-06T08:24:26.278Z,13.20
2019-05-06T08:26:56.657Z,13.20
2019-05-06T08:29:27.157Z,13.20
2019-05-06T08:31:57.606Z,13.30
2019-05-06T08:34:28.026Z,13.30
2019-05-06T08:37:00.050Z,13.30
2019-05-06T08:39:32.157Z,13.30
2019-05-06T08:42:02.783Z,13.30
2019-05-06T08:44:35.974Z,13.20
2019-05-06T08:47:06.433Z,13.20
2019-05-06T08:49:42.276Z,13.20
2019-05-06T08:52:14.381Z,13.20
2019-05-06T08:54:47.424Z,13.30
2019-05-06T08:57:17.795Z,13.30
2019-05-06T08:59:48.212Z,13.20
2019-05-06T09:02:19.887Z,13.10
2019-05-06T09:04:51.891Z,13.20
2019-05-06T09:07:24.009Z,13.40
2019-05-06T09:09:54.599Z,13.40
2019-05-06T09:12:25.021Z,13.40
2019-05-06T09:14:55.485Z,13.40
2019-05-06T09:17:25.863Z,13.50
2019-05-06T09:19:56.352Z,13.70
2019-05-06T09:22:26.749Z,13.70
2019-05-06T09:24:57.235Z,13.60
2019-05-06T09:27:42.200Z,13.60
2019-05-06T09:30:14.468Z,13.80
2019-05-06T09:32:46.350Z,14.00
2019-05-06T09:35:18.321Z,14.10
2019-05-06T09:37:49.655Z,13.80
2019-05-06T09:40:22.782Z,14.10
2019-05-06T09:42:55.040Z,14.30
2019-05-06T09:45:25.572Z,14.40
2019-05-06T09:48:08.814Z,14.60
2019-05-06T09:50:46.130Z,14.80
2019-05-06T09:53:18.831Z,15.00
2019-05-06T09:55:56.518Z,15.40
2019-05-06T09:58:27.029Z,15.50
2019-05-06T10:00:59.043Z,15.60
2019-05-06T10:03:31.890Z,15.60
2019-05-06T10:06:02.706Z,15.80
2019-05-06T10:08:33.372Z,15.80
2019-05-06T10:11:10.413Z,15.80
2019-05-06T10:13:44.450Z,15.80
2019-05-06T10:16:15.131Z,15.70
2019-05-06T10:18:45.715Z,15.70
2019-05-06T10:21:17.549Z,15.60
2019-05-06T10:23:47.942Z,15.50
2019-05-06T10:26:18.536Z,15.70
2019-05-06T10:28:52.299Z,15.80
2019-05-06T10:31:23.746Z,15.70
2019-05-06T10:34:05.243Z,15.70
2019-05-06T10:36:44.345Z,15.60
2019-05-06T10:39:16.749Z,15.70
2019-05-06T10:41:50.069Z,15.50
2019-05-06T10:44:23.429Z,15.50
2019-05-06T10:46:55.194Z,15.60
2019-05-06T10:49:25.626Z,15.60
2019-05-06T10:52:02.195Z,15.80
2019-05-06T10:54:32.813Z,15.70
2019-05-06T10:57:04.838Z,15.70
2019-05-06T10:59:35.272Z,15.80
2019-05-06T11:02:13.961Z,15.80
2019-05-06T11:04:44.518Z,16.00
2019-05-06T11:07:28.146Z,16.10
2019-05-06T11:09:49.293Z,16.00
2019-05-06T11:12:22.006Z,16.10
2019-05-06T11:14:53.248Z,16.10
2019-05-06T11:17:24.691Z,16.10
2019-05-06T11:19:55.101Z,16.30
2019-05-06T11:22:25.538Z,16.30
2019-05-06T11:24:55.971Z,16.40
2019-05-06T11:27:32.023Z,16.50
2019-05-06T11:30:02.285Z,16.60
2019-05-06T11:32:37.124Z,16.80
2019-05-06T11:35:12.342Z,16.80
2019-05-06T11:37:53.887Z,16.60
2019-05-06T11:40:23.463Z,16.80
2019-05-06T11:42:54.092Z,16.80
2019-05-06T11:45:24.560Z,16.60
2019-05-06T11:47:55.831Z,16.60
2019-05-06T11:50:26.855Z,16.40
2019-05-06T11:52:57.923Z,16.30
2019-05-06T11:55:33.828Z,16.40
2019-05-06T11:58:02.555Z,16.30
2019-05-06T12:00:35.843Z,16.50
2019-05-06T12:03:06.534Z,16.60
2019-05-06T12:05:38.271Z,16.60
2019-05-06T12:08:08.645Z,16.70
2019-05-06T12:10:39.129Z,16.70
2019-05-06T12:13:12.087Z,16.40
2019-05-06T12:15:41.652Z,16.40
2019-05-06T12:18:12.489Z,16.40
2019-05-06T12:20:43.159Z,16.60
2019-05-06T12:23:15.567Z,16.60
2019-05-06T12:25:46.236Z,16.70
2019-05-06T12:28:17.621Z,16.80
2019-05-06T12:30:48.241Z,16.50
2019-05-06T12:33:26.430Z,16.50
2019-05-06T12:35:58.398Z,16.40
2019-05-06T12:38:31.177Z,16.30
2019-05-06T12:41:03.340Z,16.30
2019-05-06T12:43:35.617Z,16.20
2019-05-06T12:46:07.587Z,16.00
2019-05-06T12:48:44.002Z,15.80
2019-05-06T12:51:14.868Z,15.60
2019-05-06T12:53:46.861Z,15.10
2019-05-06T12:56:18.745Z,14.90
2019-05-06T12:58:49.437Z,14.60
2019-05-06T13:01:19.936Z,14.60
2019-05-06T13:03:52.414Z,14.40
2019-05-06T13:06:26.398Z,14.50
2019-05-06T13:09:01.304Z,14.60
2019-05-06T13:11:27.951Z,14.60
2019-05-06T13:14:00.816Z,14.60
2019-05-06T13:16:33.202Z,14.40
2019-05-06T13:19:03.364Z,14.40
2019-05-06T13:21:34.238Z,14.30
2019-05-06T13:24:08.761Z,14.30
2019-05-06T13:26:39.419Z,14.10
2019-05-06T13:29:12.988Z,14.10
2019-05-06T13:31:45.229Z,14.10
2019-05-06T13:34:19.750Z,14.00
2019-05-06T13:36:53.008Z,14.00
2019-05-06T13:39:23.899Z,13.90
2019-05-06T13:41:54.447Z,13.80
2019-05-06T13:44:24.917Z,13.80
2019-05-06T13:46:56.774Z,13.80
2019-05-06T13:49:28.776Z,13.90
2019-05-06T13:52:03.915Z,13.90
2019-05-06T13:54:33.031Z,14.00
2019-05-06T13:57:03.780Z,14.00
2019-05-06T13:59:35.559Z,14.00
2019-05-06T14:02:08.392Z,13.90
2019-05-06T14:04:39.114Z,14.00
2019-05-06T14:07:13.054Z,13.90
2019-05-06T14:09:43.768Z,14.00
2019-05-06T14:12:14.346Z,14.00
2019-05-06T14:14:44.863Z,14.00
2019-05-06T14:17:15.350Z,14.00
2019-05-06T14:19:45.750Z,14.10
2019-05-06T14:22:16.252Z,14.10
2019-05-06T14:24:54.562Z,14.10
2019-05-06T14:27:26.507Z,14.10
2019-05-06T14:29:59.955Z,14.00
2019-05-06T14:32:32.367Z,14.00
2019-05-06T14:35:02.500Z,14.00
2019-05-06T14:37:33.323Z,13.90
2019-05-06T14:40:06.709Z,14.00
2019-05-06T14:42:37.083Z,14.00
2019-05-06T14:45:08.703Z,14.10
2019-05-06T14:47:42.326Z,14.10
2019-05-06T14:50:14.935Z,14.00
2019-05-06T14:52:45.612Z,14.00
2019-05-06T14:55:18.846Z,14.00
2019-05-06T14:57:49.262Z,14.00
2019-05-06T15:00:22.881Z,14.00
2019-05-06T15:02:53.275Z,14.00
2019-05-06T15:05:23.982Z,14.00
2019-05-06T15:07:55.875Z,14.10
2019-05-06T15:10:26.638Z,14.10
2019-05-06T15:12:57.194Z,14.20
2019-05-06T15:15:27.703Z,14.10
2019-05-06T15:17:58.064Z,14.00
2019-05-06T15:20:28.496Z,14.10
2019-05-06T15:22:59.232Z,14.20
2019-05-06T15:25:32.695Z,14.20
2019-05-06T15:28:03.277Z,14.20
2019-05-06T15:30:35.266Z,14.20
2019-05-06T15:33:07.233Z,14.10
2019-05-06T15:35:45.213Z,14.00
2019-05-06T15:38:21.975Z,14.00
2019-05-06T15:40:52.657Z,14.10
2019-05-06T15:43:24.723Z,14.10
2019-05-06T15:45:55.215Z,14.10
2019-05-06T15:48:25.584Z,14.10
2019-05-06T15:50:57.583Z,14.10
2019-05-06T15:53:28.034Z,14.10
2019-05-06T15:55:58.435Z,14.10
2019-05-06T15:58:28.814Z,14.00
2019-05-06T16:00:59.706Z,14.10
2019-05-06T16:03:33.429Z,14.00
2019-05-06T16:06:04.584Z,14.00
2019-05-06T16:08:34.983Z,13.90
2019-05-06T16:11:05.387Z,14.00
2019-05-06T16:13:35.846Z,14.00
2019-05-06T16:16:07.040Z,14.00
2019-05-06T16:18:37.797Z,14.10
2019-05-06T16:21:09.094Z,14.10
2019-05-06T16:23:50.236Z,14.00
2019-05-06T16:26:22.989Z,14.00
2019-05-06T16:28:53.542Z,14.00
2019-05-06T16:31:24.715Z,14.00
2019-05-06T16:33:57.477Z,13.90
2019-05-06T16:36:28.147Z,13.80
2019-05-06T16:38:58.593Z,13.70
2019-05-06T16:41:29.000Z,13.70
2019-05-06T16:44:02.177Z,13.70
2019-05-06T16:46:34.182Z,13.70
2019-05-06T16:49:04.932Z,13.70
2019-05-06T16:51:35.411Z,13.70
2019-05-06T16:54:07.411Z,13.60
2019-05-06T16:56:44.681Z,13.60
2019-05-06T16:59:15.210Z,13.60
2019-05-06T17:01:46.441Z,13.60
2019-05-06T17:04:27.496Z,13.50
2019-05-06T17:06:57.943Z,13.50
2019-05-06T17:09:28.385Z,13.50
2019-05-06T17:11:59.078Z,13.50
2019-05-06T17:14:29.532Z,13.50
2019-05-06T17:17:00.054Z,13.40
2019-05-06T17:19:32.421Z,13.40
2019-05-06T17:22:03.169Z,13.40
2019-05-06T17:24:35.112Z,13.40
2019-05-06T17:27:05.835Z,13.40
2019-05-06T17:29:37.826Z,13.40
2019-05-06T17:32:13.923Z,13.40
2019-05-06T17:34:57.486Z,13.30
2019-05-06T17:37:45.259Z,13.30
2019-05-06T17:40:17.619Z,13.30
2019-05-06T17:42:49.476Z,13.30
2019-05-06T17:45:37.734Z,13.30
2019-05-06T17:48:09.704Z,13.20
2019-05-06T17:50:42.017Z,13.20
2019-05-06T17:53:14.730Z,13.10
2019-05-06T17:55:46.620Z,13.20
2019-05-06T17:58:17.143Z,13.10
2019-05-06T18:00:49.196Z,13.10
2019-05-06T18:03:19.575Z,13.10
2019-05-06T18:05:49.995Z,13.10
2019-05-06T18:08:20.370Z,13.10
2019-05-06T18:10:52.136Z,13.10
2019-05-06T18:13:22.748Z,13.10
2019-05-06T18:15:53.216Z,13.10
2019-05-06T18:18:28.415Z,13.10
2019-05-06T18:20:55.790Z,13.00
2019-05-06T18:23:26.295Z,13.00
2019-05-06T18:25:56.752Z,13.00
2019-05-06T18:28:27.146Z,13.00
2019-05-06T18:30:57.543Z,13.00
2019-05-06T18:33:29.499Z,12.90
2019-05-06T18:35:59.881Z,12.90
2019-05-06T18:38:32.929Z,12.90
2019-05-06T18:41:03.883Z,12.90
2019-05-06T18:43:34.388Z,12.80
2019-05-06T18:46:06.245Z,12.70
2019-05-06T18:48:36.730Z,12.70
2019-05-06T18:51:07.170Z,12.80
2019-05-06T18:53:38.518Z,12.80
2019-05-06T18:56:09.181Z,12.80
2019-05-06T18:58:39.754Z,12.80
2019-05-06T19:01:10.340Z,12.80
2019-05-06T19:03:43.032Z,12.70
2019-05-06T19:06:13.804Z,12.80
2019-05-06T19:08:45.802Z,12.80
2019-05-06T19:11:17.515Z,12.70
2019-05-06T19:13:47.958Z,12.70
2019-05-06T19:16:18.339Z,12.70
2019-05-06T19:18:52.174Z,12.60
2019-05-06T19:21:24.450Z,12.60
2019-05-06T19:23:54.923Z,12.60
2019-05-06T19:26:27.070Z,12.70
2019-05-06T19:28:57.761Z,12.70
2019-05-06T19:31:28.229Z,12.60
2019-05-06T19:33:58.700Z,12.70
2019-05-06T19:36:29.249Z,12.70
2019-05-06T19:38:59.614Z,12.60
2019-05-06T19:41:30.067Z,12.60
2019-05-06T19:44:02.117Z,12.60
2019-05-06T19:46:33.106Z,12.60
2019-05-06T19:49:04.783Z,12.50
2019-05-06T19:51:35.255Z,12.50
2019-05-06T19:54:06.707Z,12.50
2019-05-06T19:56:37.128Z,12.40
2019-05-06T19:59:07.630Z,12.40
2019-05-06T20:01:38.007Z,12.50
2019-05-06T20:04:08.449Z,12.40
2019-05-06T20:06:40.401Z,12.50
2019-05-06T20:09:19.104Z,12.40
2019-05-06T20:11:51.945Z,12.40
2019-05-06T20:14:22.436Z,12.40
2019-05-06T20:16:52.991Z,12.40
2019-05-06T20:19:30.850Z,12.30
2019-05-06T20:21:55.720Z,12.40
2019-05-06T20:24:26.107Z,12.40
2019-05-06T20:26:56.491Z,12.40
2019-05-06T20:29:26.917Z,12.40
2019-05-06T20:31:57.333Z,12.40
2019-05-06T20:34:27.743Z,12.40
2019-05-06T20:36:58.140Z,12.30
2019-05-06T20:39:28.696Z,12.30
2019-05-06T20:41:59.303Z,12.30
2019-05-06T20:44:29.764Z,12.30
2019-05-06T20:47:03.029Z,12.20
2019-05-06T20:49:34.758Z,12.20
2019-05-06T20:52:05.135Z,12.10
2019-05-06T20:54:35.690Z,12.10
2019-05-06T20:57:06.069Z,12.10
2019-05-06T20:59:36.538Z,12.10
2019-05-06T21:02:07.072Z,12.10
2019-05-06T21:04:37.436Z,12.10
2019-05-06T21:07:07.906Z,12.00
2019-05-06T21:09:38.301Z,12.00
2019-05-06T21:12:08.815Z,12.00
2019-05-06T21:14:39.254Z,12.00
2019-05-06T21:17:12.115Z,12.00
2019-05-06T21:19:41.734Z,12.00
2019-05-06T21:22:13.534Z,12.00
2019-05-06T21:24:44.104Z,12.00
2019-05-06T21:27:14.637Z,11.90
2019-05-06T21:29:46.586Z,11.90
2019-05-06T21:32:17.001Z,11.80
2019-05-06T21:34:47.386Z,11.80
2019-05-06T21:37:18.613Z,11.70
2019-05-06T21:39:48.998Z,11.70
2019-05-06T21:42:19.445Z,11.60
2019-05-06T21:44:52.152Z,11.70
2019-05-06T21:47:22.232Z,11.60
2019-05-06T21:49:52.893Z,11.70
2019-05-06T21:52:36.252Z,11.70
2019-05-06T21:54:57.353Z,11.60
2019-05-06T21:57:27.798Z,11.60
2019-05-06T21:59:58.327Z,11.60
2019-05-06T22:02:28.845Z,11.70
2019-05-06T22:05:02.782Z,11.60
2019-05-06T22:07:35.730Z,11.60
2019-05-06T22:10:08.773Z,11.60
2019-05-06T22:12:39.314Z,11.60
2019-05-06T22:15:11.748Z,11.60
2019-05-06T22:17:42.909Z,11.50
2019-05-06T22:20:14.874Z,11.50
2019-05-06T22:22:45.778Z,11.50
2019-05-06T22:25:16.383Z,11.40
2019-05-06T22:27:48.266Z,11.40
2019-05-06T22:30:18.859Z,11.50
2019-05-06T22:32:49.337Z,11.40
2019-05-06T22:35:19.715Z,11.40
2019-05-06T22:37:52.740Z,11.40
2019-05-06T22:40:23.884Z,11.40
2019-05-06T22:42:54.324Z,11.40
2019-05-06T22:45:26.266Z,11.40
2019-05-06T22:47:56.836Z,11.30
2019-05-06T22:50:28.952Z,11.30
2019-05-06T22:52:59.329Z,11.30
2019-05-06T22:55:29.825Z,11.30
2019-05-06T22:58:02.407Z,11.30
2019-05-06T23:00:33.850Z,11.30
2019-05-06T23:03:07.302Z,11.20
2019-05-06T23:05:37.844Z,11.20
2019-05-06T23:08:08.537Z,11.10
2019-05-06T23:10:38.959Z,11.10
2019-05-06T23:13:09.411Z,11.00
2019-05-06T23:15:41.897Z,11.00
2019-05-06T23:18:11.923Z,10.80
2019-05-06T23:20:43.098Z,10.70
2019-05-06T23:23:13.996Z,10.70
2019-05-06T23:25:46.210Z,10.60
2019-05-06T23:28:18.077Z,10.40
2019-05-06T23:30:52.362Z,10.30
2019-05-06T23:33:24.338Z,10.20
2019-05-06T23:35:54.777Z,10.10
2019-05-06T23:39:02.003Z,10.00
2019-05-06T23:42:09.033Z,9.90
2019-05-06T23:45:16.028Z,9.80
2019-05-06T23:48:23.208Z,9.70
2019-05-06T23:51:29.244Z,9.60
2019-05-06T23:54:36.231Z,9.50
2019-05-06T23:57:05.458Z,9.30
2019-05-06T23:59:35.843Z,9.30
